Time;durP1;ratioP1;P1;durP2;ratioP2;P2;SDS_P1;SDS_P2;PMS_P1;PMS_P2;Temp;Humidity;BMP_temperature;BMP_pressure;BME280_temperature;BME280_humidity;BME280_pressure;Samples;Min_cycle;Max_cycle;Signal;HPM_P1;HPM_P2
2023/03/02 00:02:17;;;;;;;0.98;0.98;;;0.80;90.40;;;;;;5001515;28;20173;-84
2023/03/02 00:04:48;;;;;;;0.50;0.50;;;0.80;90.60;;;;;;5001518;28;20021;-83
2023/03/02 00:07:19;;;;;;;1.15;1.15;;;0.80;90.50;;;;;;4996939;28;20041;-84
2023/03/02 00:09:45;;;;;;;0.20;0.20;;;0.80;90.70;;;;;;4999348;28;20041;-83
2023/03/02 00:12:12;;;;;;;0.60;0.60;;;0.80;90.80;;;;;;4994998;28;20033;-84
2023/03/02 00:14:38;;;;;;;1.77;1.67;;;0.80;90.70;;;;;;4997459;28;20116;-83
2023/03/02 00:17:04;;;;;;;5.68;1.88;;;0.80;91.00;;;;;;4997651;28;20050;-84
2023/03/02 00:19:30;;;;;;;0.63;0.63;;;0.70;90.80;;;;;;4994675;28;20041;-82
2023/03/02 00:21:55;;;;;;;2.03;1.33;;;0.70;90.80;;;;;;4996745;28;20026;-82
2023/03/02 00:24:21;;;;;;;4.57;1.67;;;0.70;91.00;;;;;;4994458;28;20087;-82
2023/03/02 00:26:47;;;;;;;1.00;1.00;;;0.60;91.10;;;;;;5000335;28;20017;-82
2023/03/02 00:29:12;;;;;;;1.40;0.65;;;0.60;91.20;;;;;;5001490;28;20095;-82
2023/03/02 00:31:38;;;;;;;1.15;1.10;;;0.50;91.30;;;;;;4989674;28;20030;-83
2023/03/02 00:34:04;;;;;;;1.17;1.13;;;0.50;91.50;;;;;;5000938;28;20037;-82
2023/03/02 00:36:30;;;;;;;1.25;1.20;;;0.40;91.50;;;;;;4998004;28;20038;-82
2023/03/02 00:38:56;;;;;;;0.20;0.20;;;0.40;91.50;;;;;;4995202;28;20018;-83
2023/03/02 00:41:22;;;;;;;1.27;1.17;;;0.50;91.60;;;;;;4998614;28;20029;-83
2023/03/02 00:43:49;;;;;;;1.13;0.50;;;0.40;91.60;;;;;;4976346;28;20099;-83
2023/03/02 00:46:19;;;;;;;;;;;0.30;91.80;;;;;;4999605;28;20034;-84
2023/03/02 00:48:45;;;;;;;0.60;0.60;;;0.30;91.80;;;;;;4998843;28;19983;-83
2023/03/02 00:51:11;;;;;;;0.40;0.40;;;0.30;91.90;;;;;;4992854;28;20081;-83
2023/03/02 00:53:37;;;;;;;0.85;0.85;;;0.30;91.80;;;;;;5000522;28;20030;-83
2023/03/02 00:56:04;;;;;;;6.28;1.15;;;0.40;91.80;;;;;;4996676;28;20049;-83
2023/03/02 00:58:30;;;;;;;0.65;0.65;;;0.40;91.90;;;;;;4999091;28;20502;-84
2023/03/02 01:00:57;;;;;;;1.05;1.02;;;0.30;92.00;;;;;;5001853;28;20115;-83
2023/03/02 01:03:23;;;;;;;1.15;1.13;;;0.40;92.00;;;;;;5002004;28;20099;-82
2023/03/02 01:05:55;;;;;;;0.98;0.98;;;0.20;92.10;;;;;;5003689;28;20818;-82
2023/03/02 01:08:21;;;;;;;0.73;0.73;;;0.30;92.10;;;;;;4982573;28;20053;-83
2023/03/02 01:10:47;;;;;;;0.35;0.35;;;0.20;92.20;;;;;;5006421;28;20025;-82
2023/03/02 01:13:13;;;;;;;1.75;1.50;;;0.10;92.30;;;;;;5019241;28;20029;-83
2023/03/02 01:15:39;;;;;;;2.78;2.00;;;0.10;92.40;;;;;;5001291;28;20042;-83
2023/03/02 01:18:04;;;;;;;0.60;0.60;;;0.20;92.20;;;;;;4997238;28;20037;-83
2023/03/02 01:20:30;;;;;;;1.92;1.83;;;0.20;92.20;;;;;;5001987;28;20030;-82
2023/03/02 01:22:56;;;;;;;0.70;0.70;;;0.20;92.10;;;;;;5008536;28;20545;-82
2023/03/02 01:25:21;;;;;;;3.08;2.28;;;0.20;92.20;;;;;;5002052;28;20030;-82
2023/03/02 01:27:47;;;;;;;0.50;0.50;;;0.20;92.40;;;;;;4997732;28;20816;-83
2023/03/02 01:30:13;;;;;;;0.55;0.55;;;0.10;92.40;;;;;;5003307;28;20033;-82
2023/03/02 01:32:38;;;;;;;0.88;0.88;;;0.10;92.40;;;;;;4996093;28;20034;-82
2023/03/02 01:35:05;;;;;;;0.93;0.93;;;0.20;92.40;;;;;;4975820;28;20034;-84
2023/03/02 01:37:30;;;;;;;1.47;1.47;;;0.20;92.30;;;;;;5013920;28;20033;-83
2023/03/02 01:39:56;;;;;;;1.17;1.17;;;0.20;92.50;;;;;;5002733;28;20780;-84
2023/03/02 01:42:22;;;;;;;0.95;0.95;;;0.20;92.30;;;;;;5002882;28;20092;-84
2023/03/02 01:44:50;;;;;;;6.45;2.10;;;0.20;92.20;;;;;;4995415;28;20052;-84
2023/03/02 01:47:26;;;;;;;1.25;1.25;;;0.20;92.30;;;;;;4992487;28;20033;-84
2023/03/02 01:49:57;;;;;;;1.13;1.08;;;0.10;92.30;;;;;;4991562;28;20029;-83
2023/03/02 01:52:23;;;;;;;2.35;2.25;;;0.20;92.30;;;;;;4993863;28;20025;-84
2023/03/02 01:54:51;;;;;;;0.80;0.80;;;0.20;92.30;;;;;;4994018;28;20478;-83
2023/03/02 01:57:23;;;;;;;0.32;0.32;;;0.00;92.40;;;;;;4972582;28;20026;-84
2023/03/02 01:59:52;;;;;;;1.27;1.27;;;0.00;92.50;;;;;;4991345;28;20714;-84
2023/03/02 02:02:18;;;;;;;1.92;1.33;;;0.00;92.50;;;;;;4997032;28;20057;-84
2023/03/02 02:04:47;;;;;;;0.88;0.88;;;0.00;92.60;;;;;;4997283;28;20099;-83
2023/03/02 02:07:13;;;;;;;1.17;1.17;;;-0.10;92.70;;;;;;4996185;28;20105;-85
2023/03/02 02:09:45;;;;;;;1.00;1.00;;;-0.10;92.60;;;;;;4999575;28;20022;-85
2023/03/02 02:12:15;;;;;;;1.63;1.52;;;-0.10;92.80;;;;;;4995913;28;20105;-85
2023/03/02 02:14:42;;;;;;;1.00;1.00;;;-0.10;92.90;;;;;;5002282;28;20022;-84
2023/03/02 02:17:09;;;;;;;1.33;1.27;;;-0.10;93.00;;;;;;4997387;28;20071;-84
2023/03/02 02:20:13;;;;;;;1.52;1.42;;;-0.20;93.00;;;;;;5001424;28;20054;-85
2023/03/02 02:22:39;;;;;;;1.35;1.25;;;-0.20;93.00;;;;;;4983866;28;20687;-85
2023/03/02 02:25:24;;;;;;;1.77;1.67;;;-0.10;92.90;;;;;;4996151;28;20034;-86
2023/03/02 02:27:50;;;;;;;1.67;1.58;;;0.00;92.90;;;;;;4987286;28;20065;-85
2023/03/02 02:30:19;;;;;;;0.85;0.85;;;-0.10;92.90;;;;;;4992456;28;20038;-83
2023/03/02 02:32:46;;;;;;;1.65;1.55;;;-0.10;93.00;;;;;;4995840;28;20041;-84
2023/03/02 02:35:17;;;;;;;2.72;1.45;;;-0.10;93.00;;;;;;5006622;28;20041;-85
2023/03/02 02:38:01;;;;;;;0.50;0.50;;;-0.10;93.00;;;;;;4992825;28;20656;-84
2023/03/02 02:40:51;;;;;;;1.55;1.23;;;-0.10;93.10;;;;;;4996116;28;20033;-85
2023/03/02 02:43:20;;;;;;;0.63;0.63;;;-0.20;93.30;;;;;;5007571;28;20033;-85
2023/03/02 02:45:48;;;;;;;0.88;0.88;;;-0.20;93.20;;;;;;4996026;28;20494;-85
2023/03/02 02:48:17;;;;;;;0.55;0.55;;;-0.20;93.20;;;;;;5000535;28;20927;-83
2023/03/02 02:50:43;;;;;;;3.58;2.72;;;-0.20;93.30;;;;;;5001236;28;20025;-83
2023/03/02 02:53:17;;;;;;;33.50;1.83;;;-0.20;93.40;;;;;;4996121;28;20040;-83
2023/03/02 02:55:44;;;;;;;0.65;0.65;;;-0.30;93.50;;;;;;4998570;28;20101;-83
2023/03/02 02:58:38;;;;;;;1.83;1.73;;;-0.30;93.40;;;;;;5000751;28;20025;-84
2023/03/02 03:01:05;;;;;;;2.20;2.03;;;-0.20;93.20;;;;;;4994067;28;20892;-84
2023/03/02 03:03:37;;;;;;;0.73;0.73;;;-0.20;93.20;;;;;;5001076;28;20037;-84
2023/03/02 03:06:06;;;;;;;0.55;0.55;;;-0.20;93.20;;;;;;5001254;28;20165;-83
2023/03/02 03:08:40;;;;;;;0.75;0.75;;;-0.20;93.10;;;;;;4993932;28;20037;-84
2023/03/02 03:11:07;;;;;;;0.60;0.60;;;-0.20;93.10;;;;;;4998069;28;20084;-84
2023/03/02 03:13:33;;;;;;;1.65;1.00;;;-0.20;93.10;;;;;;4983846;28;20035;-83
2023/03/02 03:16:01;;;;;;;1.65;1.55;;;-0.30;93.10;;;;;;5002165;28;20037;-84
2023/03/02 03:18:29;;;;;;;0.65;0.65;;;-0.20;93.10;;;;;;4998814;28;20069;-84
2023/03/02 03:20:55;;;;;;;1.98;1.88;;;-0.10;93.00;;;;;;5002372;28;20029;-84
2023/03/02 03:23:21;;;;;;;1.85;1.65;;;-0.20;92.90;;;;;;4998386;28;20038;-83
2023/03/02 03:25:46;;;;;;;0.88;0.88;;;-0.20;93.00;;;;;;4996717;28;20060;-82
2023/03/02 03:28:12;;;;;;;0.47;0.47;;;-0.20;93.00;;;;;;4999487;28;20751;-84
2023/03/02 03:30:38;;;;;;;0.65;0.65;;;-0.20;92.90;;;;;;4997230;28;20029;-83
2023/03/02 03:33:03;;;;;;;1.35;1.35;;;-0.20;92.90;;;;;;4998559;28;20056;-83
2023/03/02 03:35:29;;;;;;;1.05;1.05;;;-0.20;93.00;;;;;;4999334;28;20140;-84
2023/03/02 03:37:55;;;;;;;1.75;1.65;;;-0.20;93.10;;;;;;4993325;28;20350;-84
2023/03/02 03:40:20;;;;;;;0.40;0.40;;;-0.30;93.20;;;;;;5000492;28;20722;-86
2023/03/02 03:42:46;;;;;;;2.40;1.95;;;-0.30;93.40;;;;;;4993825;28;20084;-87
2023/03/02 03:45:12;;;;;;;2.10;1.90;;;-0.40;93.50;;;;;;5001205;28;20133;-86
2023/03/02 03:47:38;;;;;;;0.73;0.73;;;-0.30;93.50;;;;;;4997083;28;20064;-85
2023/03/02 03:50:04;;;;;;;0.20;0.20;;;-0.40;93.70;;;;;;4997798;28;20038;-85
2023/03/02 03:52:29;;;;;;;1.48;1.38;;;-0.50;93.80;;;;;;4998559;28;20037;-85
2023/03/02 03:54:59;;;;;;;1.55;1.45;;;-0.50;94.00;;;;;;5004028;28;20504;-85
2023/03/02 03:57:26;;;;;;;1.13;1.13;;;-0.50;94.10;;;;;;5002306;28;20026;-83
2023/03/02 03:59:52;;;;;;;;;;;-0.40;94.00;;;;;;5007545;28;20054;-83
2023/03/02 04:02:18;;;;;;;1.67;1.20;;;-0.50;94.10;;;;;;5005072;28;19996;-83
2023/03/02 04:04:45;;;;;;;0.65;0.52;;;-0.60;94.20;;;;;;5013175;28;20071;-83
2023/03/02 04:07:11;;;;;;;0.73;0.73;;;-0.50;94.20;;;;;;5004638;28;20107;-83
2023/03/02 04:09:38;;;;;;;1.63;1.52;;;-0.50;94.20;;;;;;5009944;28;20425;-83
2023/03/02 04:12:05;;;;;;;1.27;1.17;;;-0.60;94.20;;;;;;5014653;28;20054;-83
2023/03/02 04:14:30;;;;;;;;;;;-0.50;94.10;;;;;;5013828;28;20041;-83
2023/03/02 04:16:56;;;;;;;1.70;1.60;;;-0.50;94.10;;;;;;5009274;28;20491;-83
2023/03/02 04:19:22;;;;;;;0.93;0.93;;;-0.40;94.00;;;;;;5007276;28;20029;-82
2023/03/02 04:21:50;;;;;;;0.22;0.22;;;-0.40;93.90;;;;;;4982907;28;20069;-82
2023/03/02 04:24:18;;;;;;;0.93;0.93;;;-0.40;93.80;;;;;;5007026;28;20038;-82
2023/03/02 04:26:45;;;;;;;3.95;3.65;;;-0.50;93.90;;;;;;5004154;28;20720;-82
2023/03/02 04:29:11;;;;;;;5.07;2.58;;;-0.40;93.80;;;;;;5007062;28;20934;-82
2023/03/02 04:31:37;;;;;;;0.45;0.45;;;-0.30;93.60;;;;;;5001649;28;20030;-82
2023/03/02 04:34:04;;;;;;;2.05;1.58;;;-0.30;93.70;;;;;;5009057;28;20040;-82
2023/03/02 04:36:32;;;;;;;0.70;0.55;;;-0.30;93.60;;;;;;5002135;28;20140;-83
2023/03/02 04:38:58;;;;;;;0.77;0.75;;;-0.20;93.60;;;;;;5006822;28;20031;-82
2023/03/02 04:41:23;;;;;;;2.78;2.58;;;-0.10;93.40;;;;;;4984448;28;20042;-82
2023/03/02 04:43:51;;;;;;;0.65;0.65;;;0.10;93.20;;;;;;5004350;28;20046;-81
2023/03/02 04:46:22;;;;;;;0.20;0.20;;;0.10;93.10;;;;;;5000417;28;20029;-82
2023/03/02 04:48:48;;;;;;;0.75;0.75;;;0.20;92.90;;;;;;5002305;28;20416;-83
2023/03/02 04:51:24;;;;;;;3.63;1.10;;;0.20;92.80;;;;;;4981906;28;20029;-83
2023/03/02 04:53:51;;;;;;;2.30;1.13;;;0.20;92.80;;;;;;4995429;28;20026;-84
2023/03/02 04:56:17;;;;;;;0.63;0.63;;;0.20;92.80;;;;;;4996201;28;20493;-84
2023/03/02 04:58:43;;;;;;;0.68;0.68;;;0.30;92.70;;;;;;4995088;28;20037;-85
2023/03/02 05:01:09;;;;;;;6.05;2.22;;;0.30;92.90;;;;;;4991037;28;20073;-83
2023/03/02 05:03:35;;;;;;;1.45;1.35;;;0.30;92.90;;;;;;5001373;28;20059;-83
2023/03/02 05:06:04;;;;;;;1.30;0.73;;;0.30;92.90;;;;;;4999683;28;20034;-83
2023/03/02 05:08:30;;;;;;;0.75;0.75;;;0.30;92.90;;;;;;4995627;28;20069;-83
2023/03/02 05:10:57;;;;;;;2.90;2.47;;;0.20;92.90;;;;;;5000487;28;20030;-83
2023/03/02 05:13:24;;;;;;;0.57;0.57;;;0.30;93.00;;;;;;4999972;28;20797;-83
2023/03/02 05:15:50;;;;;;;3.90;1.90;;;0.30;92.90;;;;;;5001459;28;20037;-83
2023/03/02 05:18:17;;;;;;;0.17;0.17;;;0.30;93.00;;;;;;4998702;28;20038;-83
2023/03/02 05:20:43;;;;;;;0.50;0.50;;;0.40;93.00;;;;;;5000571;28;20033;-84
2023/03/02 05:23:10;;;;;;;0.75;0.75;;;0.30;92.90;;;;;;5000892;28;20406;-83
2023/03/02 05:25:37;;;;;;;0.30;0.30;;;0.30;93.10;;;;;;4999770;28;20030;-83
2023/03/02 05:28:04;;;;;;;3.88;2.45;;;0.30;93.20;;;;;;4993585;28;20030;-83
2023/03/02 05:30:31;;;;;;;2.75;1.40;;;0.20;93.40;;;;;;5000554;28;20112;-84
2023/03/02 05:32:57;;;;;;;1.10;1.10;;;0.20;93.40;;;;;;4996137;28;20037;-84
2023/03/02 05:35:23;;;;;;;0.63;0.63;;;0.20;93.40;;;;;;4997012;28;20029;-84
2023/03/02 05:37:49;;;;;;;2.15;1.08;;;0.20;93.60;;;;;;4993116;28;20113;-83
2023/03/02 05:40:18;;;;;;;0.98;0.98;;;0.20;93.80;;;;;;4993339;28;20022;-85
2023/03/02 05:42:45;;;;;;;0.52;0.45;;;0.10;93.90;;;;;;4997506;28;20028;-85
2023/03/02 05:45:45;;;;;;;1.92;1.67;;;0.20;93.80;;;;;;4998620;28;20077;-84
2023/03/02 05:48:12;;;;;;;1.80;1.70;;;0.20;93.80;;;;;;4991597;28;20108;-84
2023/03/02 05:50:38;;;;;;;4.15;1.45;;;0.20;94.00;;;;;;5000090;28;20695;-84
2023/03/02 05:53:04;;;;;;;1.83;1.55;;;0.20;94.00;;;;;;4993616;28;20029;-84
2023/03/02 05:55:30;;;;;;;0.25;0.25;;;0.20;93.90;;;;;;4992274;28;20073;-84
2023/03/02 05:57:56;;;;;;;1.27;1.00;;;0.20;94.00;;;;;;4981555;28;20026;-83
2023/03/02 06:00:22;;;;;;;0.10;0.10;;;0.20;93.90;;;;;;4999236;28;20109;-85
2023/03/02 06:02:48;;;;;;;1.25;1.25;;;0.20;94.10;;;;;;5003978;28;20029;-86
2023/03/02 06:05:16;;;;;;;1.10;1.10;;;0.20;94.10;;;;;;5002394;28;20063;-84
2023/03/02 06:07:43;;;;;;;3.45;0.73;;;0.20;94.10;;;;;;4997353;28;20157;-87
2023/03/02 06:10:11;;;;;;;0.98;0.98;;;0.20;94.00;;;;;;4983096;28;20390;-84
2023/03/02 06:12:37;;;;;;;0.30;0.30;;;0.30;93.90;;;;;;4998642;28;20033;-84
2023/03/02 06:15:04;;;;;;;1.25;1.15;;;0.30;93.80;;;;;;5005491;28;20104;-84
2023/03/02 06:17:30;;;;;;;;;;;0.30;93.70;;;;;;5010381;28;20034;-86
2023/03/02 06:19:56;;;;;;;1.87;1.27;;;0.30;93.80;;;;;;4984556;28;19920;-85
2023/03/02 06:22:21;;;;;;;8.85;0.80;;;0.40;93.70;;;;;;5002377;28;20033;-86
2023/03/02 06:24:47;;;;;;;0.60;0.60;;;0.40;93.70;;;;;;5008341;28;20026;-85
2023/03/02 06:27:13;;;;;;;4.70;1.08;;;0.50;93.60;;;;;;5005200;28;20233;-84
2023/03/02 06:29:39;;;;;;;3.72;2.05;;;0.40;93.60;;;;;;4985647;28;20125;-84
2023/03/02 06:32:05;;;;;;;0.43;0.43;;;0.50;93.30;;;;;;5003132;28;20818;-84
2023/03/02 06:34:31;;;;;;;0.47;0.47;;;0.60;93.20;;;;;;4985943;28;20033;-85
2023/03/02 06:36:56;;;;;;;0.55;0.43;;;0.60;93.00;;;;;;5004875;28;20033;-83
2023/03/02 06:39:22;;;;;;;1.45;1.10;;;0.60;93.20;;;;;;4999071;28;20041;-86
2023/03/02 06:41:48;;;;;;;2.08;1.98;;;0.60;93.10;;;;;;4999793;28;20653;-86
2023/03/02 06:44:16;;;;;;;1.00;0.97;;;0.70;93.00;;;;;;5006954;28;20166;-85
2023/03/02 06:46:44;;;;;;;1.98;1.85;;;0.70;92.80;;;;;;4995409;28;20034;-84
2023/03/02 06:49:10;;;;;;;6.80;2.67;;;0.80;92.70;;;;;;4998337;28;20034;-87
2023/03/02 06:51:36;;;;;;;5.28;2.65;;;0.80;92.50;;;;;;5013040;28;20033;-86
2023/03/02 06:54:03;;;;;;;0.10;0.10;;;0.80;92.50;;;;;;5001989;28;20034;-85
2023/03/02 06:56:29;;;;;;;2.45;2.28;;;0.80;92.60;;;;;;5019027;28;20370;-88
2023/03/02 06:58:54;;;;;;;2.70;2.17;;;0.80;92.60;;;;;;5012610;28;20065;-85
2023/03/02 07:01:20;;;;;;;1.38;1.27;;;0.80;92.80;;;;;;5000244;28;20169;-84
2023/03/02 07:03:46;;;;;;;0.60;0.60;;;0.80;92.60;;;;;;5013132;28;20033;-85
2023/03/02 07:06:12;;;;;;;1.00;1.00;;;0.90;92.30;;;;;;5010423;28;20085;-85
2023/03/02 07:08:38;;;;;;;0.47;0.47;;;0.80;92.50;;;;;;5011878;28;20025;-87
2023/03/02 07:11:10;;;;;;;0.40;0.40;;;0.90;92.60;;;;;;4996362;28;20842;-86
2023/03/02 07:13:39;;;;;;;1.77;1.58;;;1.00;92.70;;;;;;5003459;28;20044;-87
2023/03/02 07:16:10;;;;;;;2.67;0.75;;;1.00;92.50;;;;;;5014692;28;20030;-86
2023/03/02 07:18:36;;;;;;;3.03;2.28;;;1.00;92.60;;;;;;4993147;28;20524;-86
2023/03/02 07:21:02;;;;;;;0.30;0.30;;;1.00;92.50;;;;;;5005620;28;20088;-87
2023/03/02 07:23:28;;;;;;;0.60;0.60;;;1.00;92.60;;;;;;5001447;28;20121;-79
2023/03/02 07:25:54;;;;;;;1.40;0.85;;;1.10;92.50;;;;;;5012133;28;20144;-80
2023/03/02 07:28:22;;;;;;;1.60;1.50;;;1.10;92.30;;;;;;5011865;28;20025;-79
2023/03/02 07:30:49;;;;;;;0.55;0.55;;;1.20;92.20;;;;;;5006848;28;20239;-81
2023/03/02 07:33:14;;;;;;;0.73;0.73;;;1.30;92.30;;;;;;5012843;28;20033;-81
2023/03/02 07:35:40;;;;;;;0.43;0.43;;;1.30;92.10;;;;;;5008675;28;20212;-80
2023/03/02 07:38:05;;;;;;;4.15;1.27;;;1.40;92.10;;;;;;5014745;28;20022;-83
2023/03/02 07:40:32;;;;;;;1.00;1.00;;;1.40;92.20;;;;;;5012660;28;20036;-80
2023/03/02 07:42:58;;;;;;;1.02;1.02;;;1.40;92.30;;;;;;5009464;28;20040;-80
2023/03/02 07:45:25;;;;;;;1.35;1.25;;;1.40;92.80;;;;;;5006996;28;20066;-84
2023/03/02 07:47:51;;;;;;;0.30;0.30;;;1.40;93.30;;;;;;4992635;28;20018;-83
2023/03/02 07:50:17;;;;;;;1.08;0.95;;;1.30;93.00;;;;;;5013427;28;20113;-80
2023/03/02 07:52:42;;;;;;;1.67;1.58;;;1.40;93.10;;;;;;5000380;28;20036;-80
2023/03/02 07:55:09;;;;;;;1.10;0.75;;;1.50;92.70;;;;;;5007951;28;20891;-80
2023/03/02 07:57:35;;;;;;;0.70;0.70;;;1.50;92.90;;;;;;5018124;28;20063;-81
2023/03/02 08:00:00;;;;;;;0.88;0.88;;;1.50;93.50;;;;;;5007560;28;20783;-82
2023/03/02 08:02:27;;;;;;;5.60;3.30;;;1.60;93.80;;;;;;5016278;28;20598;-81
2023/03/02 08:04:53;;;;;;;0.68;0.68;;;1.70;93.60;;;;;;5003279;28;20022;-79
2023/03/02 08:07:18;;;;;;;3.90;2.60;;;1.80;93.50;;;;;;5009048;28;20527;-85
2023/03/02 08:09:44;;;;;;;1.15;1.15;;;1.80;93.70;;;;;;4998872;28;20030;-82
2023/03/02 08:12:09;;;;;;;0.75;0.75;;;1.90;93.70;;;;;;4996342;28;20571;-83
2023/03/02 08:14:36;;;;;;;4.20;2.53;;;2.00;93.50;;;;;;5003761;28;20062;-84
2023/03/02 08:17:04;;;;;;;0.28;0.15;;;2.00;93.30;;;;;;5001292;28;20751;-80
2023/03/02 08:19:29;;;;;;;2.38;0.55;;;2.10;93.10;;;;;;4998548;28;20587;-82
2023/03/02 08:21:55;;;;;;;0.70;0.70;;;2.10;92.70;;;;;;5001071;28;20030;-82
2023/03/02 08:24:20;;;;;;;3.65;1.52;;;2.20;92.60;;;;;;5002516;28;20508;-81
2023/03/02 08:26:46;;;;;;;0.90;0.90;;;2.30;92.40;;;;;;5002907;28;20500;-81
2023/03/02 08:29:12;;;;;;;2.35;1.30;;;2.40;92.80;;;;;;4993407;28;20026;-80
2023/03/02 08:31:38;;;;;;;1.02;1.00;;;2.30;93.10;;;;;;4998837;28;20029;-82
2023/03/02 08:34:03;;;;;;;0.82;0.82;;;2.40;93.10;;;;;;4998169;28;20772;-81
2023/03/02 08:36:29;;;;;;;1.00;1.00;;;2.30;92.80;;;;;;4994505;28;20196;-82
2023/03/02 08:38:54;;;;;;;1.95;1.75;;;2.20;92.60;;;;;;5001985;28;20022;-81
2023/03/02 08:41:22;;;;;;;0.95;0.95;;;2.20;92.70;;;;;;5001639;28;20480;-83
2023/03/02 08:43:48;;;;;;;1.65;1.55;;;2.30;92.80;;;;;;4997018;28;20112;-79
2023/03/02 08:46:16;;;;;;;1.38;1.30;;;2.40;92.80;;;;;;4995426;28;20081;-81
2023/03/02 08:48:42;;;;;;;1.42;1.35;;;2.50;92.40;;;;;;4993289;28;20022;-78
2023/03/02 08:51:13;;;;;;;0.28;0.28;;;2.60;92.10;;;;;;4995737;28;20021;-80
2023/03/02 08:53:42;;;;;;;0.47;0.47;;;2.50;92.00;;;;;;5002915;28;20092;-80
2023/03/02 08:56:18;;;;;;;0.57;0.57;;;2.80;92.10;;;;;;5002280;28;20030;-81
2023/03/02 08:58:44;;;;;;;5.33;2.33;;;3.00;91.80;;;;;;5001821;28;20038;-79
2023/03/02 09:01:18;;;;;;;1.85;1.48;;;3.10;91.50;;;;;;5001399;28;20260;-84
2023/03/02 09:03:44;;;;;;;1.27;1.20;;;2.90;92.30;;;;;;4992214;28;20591;-81
2023/03/02 09:06:10;;;;;;;0.95;0.95;;;2.90;92.00;;;;;;4991072;28;20026;-83
2023/03/02 09:08:36;;;;;;;0.33;0.33;;;2.90;91.80;;;;;;4989445;28;20042;-82
2023/03/02 09:11:01;;;;;;;0.63;0.50;;;3.10;92.00;;;;;;5000914;28;20058;-80
2023/03/02 09:13:27;;;;;;;2.30;1.70;;;3.20;91.60;;;;;;5001657;28;20711;-80
2023/03/02 09:15:53;;;;;;;4.40;1.95;;;3.20;91.50;;;;;;5002289;28;20524;-80
2023/03/02 09:18:18;;;;;;;1.20;1.10;;;3.20;91.30;;;;;;5001140;28;20385;-85
2023/03/02 09:20:48;;;;;;;1.67;1.55;;;3.30;91.10;;;;;;5002145;28;20568;-81
2023/03/02 09:23:13;;;;;;;1.85;1.75;;;3.50;90.90;;;;;;5001966;28;20034;-80
2023/03/02 09:25:39;;;;;;;1.38;1.38;;;3.20;91.30;;;;;;5002149;28;20040;-81
2023/03/02 09:28:05;;;;;;;1.65;0.93;;;3.30;91.70;;;;;;5002258;28;20032;-82
2023/03/02 09:30:31;;;;;;;1.58;1.45;;;3.30;91.70;;;;;;5002233;28;20026;-82
2023/03/02 09:32:57;;;;;;;0.60;0.60;;;3.60;91.30;;;;;;4999228;28;20489;-81
2023/03/02 09:35:22;;;;;;;1.05;0.88;;;3.70;91.00;;;;;;5002376;28;20025;-79
2023/03/02 09:37:48;;;;;;;1.20;0.63;;;3.90;90.30;;;;;;5001313;28;20759;-80
2023/03/02 09:40:20;;;;;;;0.85;0.85;;;4.00;90.40;;;;;;4995209;28;20046;-83
2023/03/02 09:42:55;;;;;;;0.93;0.93;;;4.30;90.10;;;;;;5001935;28;20084;-83
2023/03/02 09:45:52;;;;;;;1.13;1.10;;;4.10;90.00;;;;;;4993758;28;20053;-82
2023/03/02 09:48:33;;;;;;;1.25;1.20;;;4.30;90.30;;;;;;4996757;28;20025;-80
2023/03/02 09:51:26;;;;;;;0.75;0.75;;;4.20;89.70;;;;;;5000056;28;20033;-83
2023/03/02 09:54:11;;;;;;;0.65;0.65;;;4.50;89.70;;;;;;5006094;28;20057;-81
2023/03/02 09:56:57;;;;;;;3.53;1.95;;;4.90;89.50;;;;;;4998835;28;20498;-81
2023/03/02 09:59:37;;;;;;;0.45;0.45;;;5.00;89.40;;;;;;5005181;28;20647;-79
2023/03/02 10:02:31;;;;;;;0.88;0.88;;;4.80;89.00;;;;;;5004730;28;20102;-81
2023/03/02 10:05:00;;;;;;;8.27;2.00;;;4.70;90.00;;;;;;4997778;28;20045;-80
2023/03/02 10:07:30;;;;;;;2.33;2.10;;;4.70;90.50;;;;;;5003516;28;20033;-82
2023/03/02 10:10:08;;;;;;;0.63;0.63;;;4.90;90.00;;;;;;5004634;28;20905;-84
2023/03/02 10:12:49;;;;;;;1.25;1.25;;;5.10;90.30;;;;;;4986892;28;20491;-80
2023/03/02 10:15:26;;;;;;;1.15;0.82;;;5.10;89.50;;;;;;5005058;28;20041;-81
2023/03/02 10:18:12;;;;;;;1.73;1.58;;;5.20;88.80;;;;;;5005420;28;20626;-80
2023/03/02 10:20:50;;;;;;;1.80;1.70;;;5.20;89.20;;;;;;5004908;28;20034;-80
2023/03/02 10:23:37;;;;;;;2.53;1.08;;;5.80;88.30;;;;;;5002244;28;20044;-82
2023/03/02 10:26:11;;;;;;;1.17;1.08;;;6.10;85.70;;;;;;4999788;28;20645;-81
2023/03/02 10:28:43;;;;;;;1.33;1.30;;;6.50;86.70;;;;;;4996788;28;20034;-80
2023/03/02 10:31:30;;;;;;;2.55;1.65;;;6.60;86.70;;;;;;4995862;28;20053;-80
2023/03/02 10:33:56;;;;;;;0.28;0.28;;;6.40;84.40;;;;;;4999978;28;20448;-81
2023/03/02 10:36:26;;;;;;;3.00;2.77;;;5.90;83.00;;;;;;4998240;28;20037;-81
2023/03/02 10:38:54;;;;;;;3.45;1.15;;;6.20;85.20;;;;;;5004973;28;20073;-82
2023/03/02 10:41:25;;;;;;;3.65;1.30;;;6.70;83.80;;;;;;5004356;28;20188;-83
2023/03/02 10:43:54;;;;;;;0.52;0.52;;;6.80;83.40;;;;;;4998278;28;20057;-84
2023/03/02 10:46:20;;;;;;;1.83;1.73;;;6.90;81.80;;;;;;4996576;28;20026;-83
2023/03/02 10:48:58;;;;;;;1.88;1.77;;;7.00;83.40;;;;;;5003805;28;20111;-85
2023/03/02 10:51:28;;;;;;;1.25;1.10;;;7.00;79.90;;;;;;4995156;28;20046;-82
2023/03/02 10:54:09;;;;;;;5.63;1.85;;;7.20;81.50;;;;;;5003161;28;20519;-81
2023/03/02 10:56:35;;;;;;;0.77;0.77;;;7.00;81.30;;;;;;4996908;28;20053;-81
2023/03/02 10:59:11;;;;;;;1.85;1.75;;;7.10;80.80;;;;;;5002096;28;20029;-86
2023/03/02 11:01:36;;;;;;;1.67;0.88;;;7.40;82.10;;;;;;5004483;28;20052;-81
2023/03/02 11:04:02;;;;;;;4.20;1.83;;;7.50;79.70;;;;;;5003369;28;20485;-80
2023/03/02 11:06:29;;;;;;;3.30;2.95;;;7.50;81.80;;;;;;5005070;28;20563;-79
2023/03/02 11:09:05;;;;;;;1.52;1.45;;;7.30;79.00;;;;;;4992056;28;20029;-82
2023/03/02 11:11:31;;;;;;;0.65;0.65;;;7.60;81.00;;;;;;5001974;28;20026;-82
2023/03/02 11:14:12;;;;;;;1.23;1.23;;;7.90;79.10;;;;;;5004894;28;20096;-80
2023/03/02 11:16:38;;;;;;;2.55;2.35;;;7.40;79.40;;;;;;5004320;28;20103;-80
2023/03/02 11:19:32;;;;;;;1.67;1.52;;;7.70;81.50;;;;;;5003755;28;20038;-82
2023/03/02 11:22:16;;;;;;;4.07;3.08;;;7.50;78.00;;;;;;4995730;28;20554;-79
2023/03/02 11:24:49;;;;;;;1.38;1.35;;;7.10;78.30;;;;;;5004427;28;20041;-79
2023/03/02 11:27:23;;;;;;;6.32;2.45;;;7.30;82.00;;;;;;4998852;28;20030;-81
2023/03/02 11:29:53;;;;;;;0.45;0.45;;;7.30;80.40;;;;;;4994865;28;20023;-80
2023/03/02 11:32:48;;;;;;;1.95;1.85;;;7.20;80.10;;;;;;5002634;28;20034;-82
2023/03/02 11:35:21;;;;;;;1.80;1.70;;;7.30;81.90;;;;;;4998381;28;20026;-81
2023/03/02 11:37:48;;;;;;;1.08;1.00;;;7.30;83.10;;;;;;5003430;28;20026;-81
2023/03/02 11:40:36;;;;;;;1.65;1.15;;;7.30;81.80;;;;;;5004486;28;20026;-80
2023/03/02 11:43:05;;;;;;;1.50;1.40;;;7.00;85.20;;;;;;4996623;28;20026;-81
2023/03/02 11:45:36;;;;;;;1.27;1.15;;;6.60;85.40;;;;;;5002486;28;20108;-83
2023/03/02 11:48:04;;;;;;;1.38;1.30;;;6.70;83.20;;;;;;5001796;28;20053;-81
2023/03/02 11:50:33;;;;;;;1.70;1.60;;;7.00;83.60;;;;;;4999783;28;20105;-80
2023/03/02 11:53:03;;;;;;;2.17;1.08;;;6.80;84.30;;;;;;4997571;28;20429;-83
2023/03/02 11:55:37;;;;;;;0.93;0.93;;;6.70;80.00;;;;;;5000538;28;20030;-81
2023/03/02 11:58:04;;;;;;;1.35;1.33;;;7.00;90.60;;;;;;4985732;28;20015;-83
2023/03/02 12:00:37;;;;;;;3.75;1.95;;;7.30;85.00;;;;;;4999848;28;20100;-82
2023/03/02 12:03:15;;;;;;;1.13;1.08;;;7.40;82.90;;;;;;5004090;28;20026;-80
2023/03/02 12:06:03;;;;;;;1.42;1.42;;;7.20;81.10;;;;;;5002286;28;20077;-81
2023/03/02 12:08:36;;;;;;;1.38;1.35;;;7.00;83.60;;;;;;4990512;28;20656;-81
2023/03/02 12:11:17;;;;;;;0.85;0.85;;;7.30;83.70;;;;;;5004050;28;20038;-80
2023/03/02 12:13:56;;;;;;;1.05;1.05;;;7.10;80.20;;;;;;5001783;28;20032;-80
2023/03/02 12:16:39;;;;;;;2.65;2.45;;;7.70;80.20;;;;;;5003584;28;20100;-82
2023/03/02 12:19:37;;;;;;;1.10;1.10;;;7.10;81.90;;;;;;5003432;28;20033;-81
2023/03/02 12:22:08;;;;;;;1.45;1.45;;;7.20;82.20;;;;;;4994712;28;20034;-82
2023/03/02 12:24:36;;;;;;;2.13;1.98;;;7.20;81.50;;;;;;4995996;28;20536;-82
2023/03/02 12:27:26;;;;;;;3.17;2.97;;;7.20;80.50;;;;;;4976385;28;20038;-80
2023/03/02 12:30:15;;;;;;;0.55;0.55;;;7.10;79.80;;;;;;4992212;28;20030;-80
2023/03/02 12:32:45;;;;;;;1.13;1.05;;;7.20;79.00;;;;;;4988657;28;20038;-82
2023/03/02 12:35:16;;;;;;;3.55;1.85;;;7.30;80.10;;;;;;4992903;28;20034;-84
2023/03/02 12:37:56;;;;;;;1.17;1.17;;;7.20;81.60;;;;;;5001635;28;20105;-80
2023/03/02 12:40:50;;;;;;;0.93;0.93;;;7.20;82.00;;;;;;4996276;28;20097;-80
2023/03/02 12:43:33;;;;;;;1.42;1.33;;;6.80;80.40;;;;;;4996747;28;20025;-81
2023/03/02 12:46:26;;;;;;;3.05;2.75;;;6.90;80.50;;;;;;5002771;28;20040;-81
2023/03/02 12:49:20;;;;;;;3.08;2.13;;;7.00;79.40;;;;;;5001177;28;20026;-80
2023/03/02 12:51:57;;;;;;;2.10;1.88;;;7.20;80.40;;;;;;4999335;28;21104;-82
2023/03/02 12:54:30;;;;;;;2.53;2.40;;;7.20;80.00;;;;;;5003202;28;20033;-80
2023/03/02 12:57:07;;;;;;;2.63;1.05;;;7.40;78.10;;;;;;5000999;28;20088;-82
2023/03/02 12:59:33;;;;;;;0.90;0.90;;;7.40;76.00;;;;;;4991513;28;20049;-79
2023/03/02 13:02:14;;;;;;;0.87;0.87;;;7.40;77.30;;;;;;5001269;28;20041;-82
2023/03/02 13:04:39;;;;;;;1.75;1.65;;;7.20;80.10;;;;;;4974305;28;21090;-81
2023/03/02 13:07:13;;;;;;;2.53;1.65;;;7.10;79.90;;;;;;4998791;28;20029;-80
2023/03/02 13:09:39;;;;;;;2.33;2.13;;;7.00;79.20;;;;;;5001956;28;20032;-82